Time;durP1;ratioP1;P1;durP2;ratioP2;P2;SDS_P1;SDS_P2;PMS_P1;PMS_P2;Temp;Humidity;BMP_temperature;BMP_pressure;BME280_temperature;BME280_humidity;BME280_pressure;Samples;Min_cycle;Max_cycle;Signal;HPM_P1;HPM_P2
2021/11/04 00:02:11;;;;;;;12.00;10.65;;;9.70;99.90;;;;;;5054915;28;20393;-53
2021/11/04 00:04:36;;;;;;;12.48;10.75;;;9.70;99.90;;;;;;5055613;28;20033;-56
2021/11/04 00:07:05;;;;;;;12.63;10.52;;;9.70;99.90;;;;;;5055253;28;20487;-57
2021/11/04 00:09:31;;;;;;;12.05;10.85;;;9.80;99.90;;;;;;5039554;28;20030;-57
2021/11/04 00:11:56;;;;;;;14.63;12.00;;;9.80;99.90;;;;;;5034837;28;20052;-58
2021/11/04 00:14:22;;;;;;;27.50;18.20;;;9.80;99.90;;;;;;5035639;28;20384;-58
2021/11/04 00:16:47;;;;;;;22.35;15.35;;;9.90;99.90;;;;;;5035571;28;20033;-58
2021/11/04 00:19:13;;;;;;;15.48;12.82;;;9.90;99.90;;;;;;5034278;28;20025;-58
2021/11/04 00:21:38;;;;;;;13.25;11.98;;;9.80;99.90;;;;;;5044820;28;20112;-57
2021/11/04 00:24:04;;;;;;;15.63;12.05;;;9.70;99.90;;;;;;5055137;28;20122;-55
2021/11/04 00:26:30;;;;;;;14.13;12.55;;;9.70;99.90;;;;;;5054597;28;20103;-58
2021/11/04 00:28:57;;;;;;;12.40;11.18;;;9.70;99.90;;;;;;5055494;28;20037;-58
2021/11/04 00:31:23;;;;;;;13.73;12.32;;;9.70;99.90;;;;;;5054408;28;20127;-56
2021/11/04 00:33:52;;;;;;;17.20;12.60;;;9.70;99.90;;;;;;5055099;28;20025;-56
2021/11/04 00:36:18;;;;;;;14.90;13.40;;;9.80;99.90;;;;;;5054614;28;20377;-55
2021/11/04 00:38:46;;;;;;;21.02;13.35;;;9.80;99.90;;;;;;5054438;28;20055;-56
2021/11/04 00:41:12;;;;;;;14.90;13.30;;;9.70;99.90;;;;;;5053201;28;20641;-58
2021/11/04 00:43:38;;;;;;;13.52;12.13;;;9.80;99.90;;;;;;5045080;28;20083;-57
2021/11/04 00:46:03;;;;;;;15.02;13.40;;;9.80;99.90;;;;;;5035066;28;20037;-58
2021/11/04 00:48:29;;;;;;;15.27;13.50;;;9.80;99.90;;;;;;5035449;28;20048;-58
2021/11/04 00:50:54;;;;;;;16.27;14.07;;;9.70;99.90;;;;;;5034640;28;20091;-58
2021/11/04 00:53:20;;;;;;;15.65;12.95;;;9.60;99.90;;;;;;5035029;28;20500;-57
2021/11/04 00:55:46;;;;;;;14.55;13.05;;;9.60;99.90;;;;;;5045935;28;20033;-54
2021/11/04 00:58:11;;;;;;;13.93;12.20;;;9.60;99.90;;;;;;5054757;28;20033;-57
2021/11/04 01:00:37;;;;;;;14.68;13.27;;;9.50;99.90;;;;;;5054302;28;20025;-56
2021/11/04 01:03:02;;;;;;;16.75;13.90;;;9.50;99.90;;;;;;5053075;28;20441;-58
2021/11/04 01:05:28;;;;;;;15.60;14.00;;;9.50;99.90;;;;;;5054203;28;20029;-56
2021/11/04 01:07:54;;;;;;;15.88;14.18;;;9.50;99.90;;;;;;5053874;28;20121;-57
2021/11/04 01:10:20;;;;;;;15.00;13.45;;;9.50;99.90;;;;;;5052585;28;20068;-59
2021/11/04 01:12:46;;;;;;;16.38;13.15;;;9.50;99.90;;;;;;5053631;28;20118;-54
2021/11/04 01:15:12;;;;;;;33.22;25.35;;;9.50;99.90;;;;;;5053788;28;20041;-59
2021/11/04 01:17:38;;;;;;;20.63;16.80;;;9.50;99.90;;;;;;5054106;28;20062;-57
2021/11/04 01:20:04;;;;;;;15.90;14.15;;;9.50;99.90;;;;;;5053266;28;20067;-56
2021/11/04 01:22:30;;;;;;;16.20;14.43;;;9.50;99.90;;;;;;5053192;28;20033;-57
2021/11/04 01:24:55;;;;;;;14.80;13.10;;;9.50;99.90;;;;;;5053509;28;20037;-58
2021/11/04 01:27:21;;;;;;;16.48;13.75;;;9.40;99.90;;;;;;5053439;28;20037;-54
2021/11/04 01:29:47;;;;;;;15.57;13.68;;;9.40;99.90;;;;;;5052573;28;20083;-55
2021/11/04 01:32:15;;;;;;;17.95;14.27;;;9.40;99.90;;;;;;5053651;28;20041;-59
2021/11/04 01:34:41;;;;;;;15.57;12.68;;;9.30;99.90;;;;;;5054631;28;20393;-56
2021/11/04 01:37:07;;;;;;;15.73;14.02;;;9.30;99.90;;;;;;5048528;28;20030;-55
2021/11/04 01:39:32;;;;;;;14.82;12.70;;;9.30;99.90;;;;;;5041507;28;20022;-53
2021/11/04 01:41:58;;;;;;;18.17;13.40;;;9.30;99.90;;;;;;5033087;28;20033;-57
2021/11/04 01:44:27;;;;;;;16.05;14.20;;;9.30;99.90;;;;;;5050157;28;20112;-53
2021/11/04 01:46:52;;;;;;;14.43;12.73;;;9.30;99.90;;;;;;5052921;28;20032;-56
2021/11/04 01:49:18;;;;;;;15.20;13.50;;;9.20;99.90;;;;;;5053311;28;20106;-51
2021/11/04 01:51:44;;;;;;;21.63;16.77;;;9.20;99.90;;;;;;5052967;28;20461;-56
2021/11/04 01:54:10;;;;;;;32.70;22.70;;;9.10;99.90;;;;;;5053490;28;20048;-55
2021/11/04 01:56:40;;;;;;;18.45;14.60;;;9.10;99.90;;;;;;5052752;28;20512;-58
2021/11/04 01:59:06;;;;;;;15.70;14.10;;;9.20;99.90;;;;;;5051383;28;20511;-56
2021/11/04 02:01:31;;;;;;;14.50;12.95;;;9.20;99.90;;;;;;5053174;28;20025;-58
2021/11/04 02:04:15;;;;;;;16.48;14.68;;;9.10;99.90;;;;;;5053567;28;20047;-58
2021/11/04 02:07:24;;;;;;;16.08;13.85;;;9.10;99.90;;;;;;5051935;28;20055;-56
2021/11/04 02:10:01;;;;;;;15.80;13.70;;;9.10;99.90;;;;;;5005455;28;20387;-56
2021/11/04 02:12:53;;;;;;;15.95;13.88;;;9.20;99.90;;;;;;5054829;28;20028;-55
2021/11/04 02:15:20;;;;;;;16.08;13.65;;;9.20;99.90;;;;;;5042430;28;20036;-56
2021/11/04 02:17:48;;;;;;;18.83;14.48;;;9.20;99.90;;;;;;5053144;28;20496;-55
2021/11/04 02:20:21;;;;;;;15.48;13.77;;;9.10;99.90;;;;;;5052386;28;20033;-58
2021/11/04 02:22:57;;;;;;;16.75;13.02;;;9.00;99.90;;;;;;5052734;28;20043;-56
2021/11/04 02:25:28;;;;;;;16.05;13.50;;;9.10;99.90;;;;;;5052720;28;20037;-56
2021/11/04 02:28:06;;;;;;;15.13;13.63;;;9.10;99.90;;;;;;5052952;28;20040;-57
2021/11/04 02:30:33;;;;;;;15.38;13.25;;;9.00;99.90;;;;;;5053350;28;20029;-55
2021/11/04 02:33:00;;;;;;;14.85;13.25;;;9.10;99.90;;;;;;5053343;28;20091;-56
2021/11/04 02:35:26;;;;;;;14.70;13.13;;;9.10;99.90;;;;;;5053020;28;20033;-56
2021/11/04 02:37:54;;;;;;;15.55;13.20;;;9.20;99.90;;;;;;5053254;28;20037;-55
2021/11/04 02:40:23;;;;;;;14.70;13.18;;;9.20;99.90;;;;;;5052590;28;20025;-58
2021/11/04 02:42:50;;;;;;;15.52;13.20;;;9.20;99.90;;;;;;5051937;28;20052;-57
2021/11/04 02:45:19;;;;;;;15.30;13.32;;;9.30;99.90;;;;;;5053084;28;20060;-58
2021/11/04 02:47:46;;;;;;;14.90;13.30;;;9.30;99.90;;;;;;5053327;28;20040;-55
2021/11/04 02:50:12;;;;;;;14.88;13.20;;;9.30;99.90;;;;;;5054801;28;20029;-57
2021/11/04 02:52:38;;;;;;;15.38;13.73;;;9.30;99.90;;;;;;5056818;28;20109;-56
2021/11/04 02:55:06;;;;;;;15.70;14.02;;;9.20;99.90;;;;;;5061141;28;20532;-57
2021/11/04 02:57:42;;;;;;;17.70;14.68;;;9.20;99.90;;;;;;5059819;28;20035;-56
2021/11/04 03:00:08;;;;;;;14.18;12.63;;;9.00;99.90;;;;;;5059391;28;20029;-54
2021/11/04 03:02:34;;;;;;;15.60;13.23;;;9.20;99.90;;;;;;5057201;28;20028;-56
2021/11/04 03:04:59;;;;;;;16.55;14.52;;;9.20;99.90;;;;;;5057450;28;20649;-57
2021/11/04 03:07:25;;;;;;;16.77;14.32;;;8.90;99.90;;;;;;5056667;28;20032;-54
2021/11/04 03:09:50;;;;;;;18.02;14.43;;;9.00;99.90;;;;;;5056630;28;20115;-57
2021/11/04 03:12:16;;;;;;;16.45;13.07;;;8.80;99.90;;;;;;5056362;28;20029;-53
2021/11/04 03:14:43;;;;;;;15.55;13.60;;;8.90;99.90;;;;;;5055566;28;20123;-56
2021/11/04 03:17:10;;;;;;;16.27;14.13;;;9.00;99.90;;;;;;5055835;28;20040;-54
2021/11/04 03:19:36;;;;;;;16.77;13.38;;;8.90;99.90;;;;;;5055001;28;20441;-56
2021/11/04 03:22:02;;;;;;;19.42;14.07;;;8.80;99.90;;;;;;5056445;28;20060;-56
2021/11/04 03:24:28;;;;;;;15.73;12.90;;;8.80;99.90;;;;;;5056707;28;20506;-57
2021/11/04 03:27:00;;;;;;;17.60;13.48;;;8.80;99.90;;;;;;5056803;28;20036;-55
2021/11/04 03:29:31;;;;;;;15.32;12.60;;;8.70;99.90;;;;;;5054906;28;20029;-57
2021/11/04 03:31:59;;;;;;;15.85;12.68;;;8.70;99.90;;;;;;5051894;28;20029;-58
2021/11/04 03:34:26;;;;;;;17.92;13.60;;;8.70;99.90;;;;;;5044463;28;20038;-54
2021/11/04 03:36:52;;;;;;;15.93;12.65;;;8.70;99.90;;;;;;5036531;28;20029;-55
2021/11/04 03:39:19;;;;;;;16.50;12.48;;;8.70;99.90;;;;;;5054939;28;20163;-55
2021/11/04 03:41:49;;;;;;;16.48;13.40;;;8.70;99.90;;;;;;5055578;28;20532;-57
2021/11/04 03:44:15;;;;;;;14.15;12.35;;;8.60;99.90;;;;;;5052606;28;20029;-52
2021/11/04 03:46:44;;;;;;;14.80;12.70;;;8.70;99.90;;;;;;5044296;28;20021;-55
2021/11/04 03:49:13;;;;;;;15.30;12.60;;;8.60;99.90;;;;;;5044473;28;20030;-58
2021/11/04 03:51:39;;;;;;;14.32;12.82;;;8.60;99.90;;;;;;5045828;28;20048;-54
2021/11/04 03:54:05;;;;;;;18.80;13.63;;;8.60;99.90;;;;;;5044274;28;20029;-53
2021/11/04 03:56:31;;;;;;;15.27;12.70;;;8.50;99.90;;;;;;5049310;28;20032;-52
2021/11/04 03:58:56;;;;;;;14.68;13.07;;;8.50;99.90;;;;;;5044897;28;20101;-55
2021/11/04 04:01:22;;;;;;;17.20;13.50;;;8.40;99.90;;;;;;5044072;28;20067;-53
2021/11/04 04:03:48;;;;;;;17.17;13.10;;;8.40;99.90;;;;;;5054705;28;20036;-55
2021/11/04 04:06:14;;;;;;;15.57;13.05;;;8.40;99.90;;;;;;5054133;28;20040;-55
2021/11/04 04:08:46;;;;;;;15.90;13.77;;;8.50;99.90;;;;;;5053135;28;20029;-55
2021/11/04 04:11:12;;;;;;;17.38;13.35;;;8.50;99.90;;;;;;5054760;28;20496;-56
2021/11/04 04:13:38;;;;;;;15.95;12.88;;;8.50;99.90;;;;;;5053932;28;20074;-54
2021/11/04 04:16:03;;;;;;;16.05;12.82;;;8.60;99.90;;;;;;5054513;28;20067;-55
2021/11/04 04:18:29;;;;;;;14.60;12.65;;;8.60;99.90;;;;;;5055828;28;20519;-58
2021/11/04 04:20:55;;;;;;;17.92;14.93;;;8.60;99.90;;;;;;5056409;28;20499;-57
2021/11/04 04:23:20;;;;;;;15.25;13.50;;;8.50;99.90;;;;;;5055480;28;20033;-57
2021/11/04 04:25:46;;;;;;;14.93;12.98;;;8.50;99.90;;;;;;5054786;28;20032;-53
2021/11/04 04:28:13;;;;;;;15.18;12.85;;;8.50;99.90;;;;;;5055056;28;20469;-52
2021/11/04 04:30:39;;;;;;;16.40;13.15;;;8.50;99.90;;;;;;5054904;28;20472;-56
2021/11/04 04:33:05;;;;;;;16.90;13.23;;;8.50;99.90;;;;;;5049838;28;20069;-55
2021/11/04 04:35:30;;;;;;;16.00;13.65;;;8.50;99.90;;;;;;5039106;28;20025;-58
2021/11/04 04:37:56;;;;;;;17.17;13.70;;;8.50;99.90;;;;;;5037824;28;20021;-60
2021/11/04 04:40:21;;;;;;;17.10;14.18;;;8.40;99.90;;;;;;5055203;28;20037;-59
2021/11/04 04:42:47;;;;;;;18.35;13.98;;;8.40;99.90;;;;;;5054485;28;20033;-62
2021/11/04 04:45:16;;;;;;;15.93;13.48;;;8.40;99.90;;;;;;5054446;28;20029;-59
2021/11/04 04:47:42;;;;;;;16.17;14.48;;;8.30;99.90;;;;;;5054904;28;20582;-57
2021/11/04 04:50:08;;;;;;;17.25;14.57;;;8.30;99.90;;;;;;5051545;28;20043;-55
2021/11/04 04:52:34;;;;;;;19.08;14.70;;;8.20;99.90;;;;;;5035011;28;20092;-57
2021/11/04 04:55:00;;;;;;;18.17;15.90;;;8.20;99.90;;;;;;5039597;28;20032;-54
2021/11/04 04:57:26;;;;;;;20.73;16.05;;;8.30;99.90;;;;;;5054924;28;20189;-56
2021/11/04 04:59:53;;;;;;;19.98;15.63;;;8.20;99.90;;;;;;5054120;28;20060;-59
2021/11/04 05:02:19;;;;;;;20.67;16.20;;;8.10;99.90;;;;;;5054085;28;20021;-55
2021/11/04 05:04:45;;;;;;;20.55;16.02;;;8.30;99.90;;;;;;5054002;28;20025;-55
2021/11/04 05:07:11;;;;;;;18.85;16.17;;;8.30;99.90;;;;;;5054986;28;20501;-57
2021/11/04 05:09:37;;;;;;;20.00;15.98;;;8.30;99.90;;;;;;5054134;28;20037;-57
2021/11/04 05:12:03;;;;;;;19.98;15.70;;;8.40;99.90;;;;;;5054875;28;20048;-57
2021/11/04 05:14:28;;;;;;;18.63;16.55;;;8.50;99.90;;;;;;5053863;28;20033;-61
2021/11/04 05:16:54;;;;;;;21.90;16.75;;;8.50;99.90;;;;;;5053683;28;20037;-55
2021/11/04 05:19:19;;;;;;;21.13;17.42;;;8.40;99.90;;;;;;5052542;28;20030;-59
2021/11/04 05:21:45;;;;;;;20.05;16.88;;;8.30;99.90;;;;;;5054280;28;20033;-57
2021/11/04 05:24:10;;;;;;;19.00;16.48;;;8.40;99.90;;;;;;5055170;28;20104;-60
2021/11/04 05:26:36;;;;;;;20.33;16.33;;;8.30;99.90;;;;;;5050386;28;20045;-56
2021/11/04 05:29:03;;;;;;;23.48;18.23;;;8.30;99.90;;;;;;5034559;28;20424;-60
2021/11/04 05:31:30;;;;;;;21.50;17.40;;;8.20;99.90;;;;;;5034455;28;20072;-59
2021/11/04 05:33:56;;;;;;;22.42;18.38;;;8.10;99.90;;;;;;5034478;28;20120;-61
2021/11/04 05:36:22;;;;;;;22.45;18.65;;;8.10;99.90;;;;;;5034274;28;20524;-58
2021/11/04 05:38:48;;;;;;;21.60;18.02;;;8.00;99.90;;;;;;5033995;28;20056;-59
2021/11/04 05:41:14;;;;;;;22.45;18.70;;;8.10;99.90;;;;;;5034217;28;20480;-59
2021/11/04 05:43:39;;;;;;;24.60;19.90;;;8.00;99.90;;;;;;5034628;28;20026;-60
2021/11/04 05:46:05;;;;;;;23.15;18.13;;;7.80;99.90;;;;;;5034454;28;20033;-62
2021/11/04 05:48:30;;;;;;;24.45;19.35;;;7.80;99.90;;;;;;5033954;28;20127;-59
2021/11/04 05:50:56;;;;;;;25.73;20.08;;;7.80;99.90;;;;;;5034261;28;20030;-58
2021/11/04 05:53:23;;;;;;;24.90;19.35;;;7.80;99.90;;;;;;5034446;28;20218;-55
2021/11/04 05:55:49;;;;;;;24.10;19.05;;;7.90;99.90;;;;;;5046511;28;20032;-61
2021/11/04 05:58:15;;;;;;;26.23;20.60;;;7.70;99.90;;;;;;5054195;28;20114;-56
2021/11/04 06:00:41;;;;;;;22.30;18.50;;;7.90;99.90;;;;;;5053735;28;20032;-59
2021/11/04 06:03:06;;;;;;;25.80;20.27;;;7.80;99.90;;;;;;5054391;28;20025;-57
2021/11/04 06:05:32;;;;;;;25.08;19.45;;;7.80;99.90;;;;;;5055094;28;20666;-58
2021/11/04 06:07:57;;;;;;;25.55;20.40;;;7.80;99.90;;;;;;5053947;28;20041;-58
2021/11/04 06:10:23;;;;;;;27.30;21.25;;;7.80;99.90;;;;;;5053278;28;20045;-58
2021/11/04 06:12:48;;;;;;;25.83;20.70;;;7.70;99.90;;;;;;5053782;28;20037;-57
2021/11/04 06:15:14;;;;;;;26.20;21.27;;;7.80;99.90;;;;;;5054216;28;20033;-56
2021/11/04 06:17:40;;;;;;;25.80;21.88;;;7.80;99.90;;;;;;5054758;28;20032;-56
2021/11/04 06:20:06;;;;;;;27.85;20.95;;;7.90;99.90;;;;;;5055561;28;20489;-55
2021/11/04 06:22:32;;;;;;;25.15;20.35;;;7.90;99.90;;;;;;5054007;28;20437;-56
2021/11/04 06:24:58;;;;;;;39.40;28.95;;;7.80;99.90;;;;;;5053732;28;20044;-56
2021/11/04 06:27:24;;;;;;;26.55;22.13;;;7.90;99.90;;;;;;5054626;28;20052;-59
2021/11/04 06:29:49;;;;;;;27.38;20.83;;;7.90;99.90;;;;;;5052263;28;20041;-58
2021/11/04 06:32:15;;;;;;;27.77;21.35;;;7.90;99.90;;;;;;5053608;28;20044;-58
2021/11/04 06:34:40;;;;;;;26.85;21.75;;;7.80;99.90;;;;;;5054035;28;20033;-58
2021/11/04 06:37:06;;;;;;;27.23;21.75;;;7.80;99.90;;;;;;5053212;28;20029;-59
2021/11/04 06:39:32;;;;;;;24.23;19.75;;;7.80;99.90;;;;;;5053391;28;20025;-60
2021/11/04 06:41:57;;;;;;;29.13;23.55;;;7.70;99.90;;;;;;5053476;28;20611;-57
2021/11/04 06:44:23;;;;;;;26.98;21.77;;;7.60;99.90;;;;;;5053455;28;20396;-57
2021/11/04 06:46:49;;;;;;;28.70;23.08;;;7.60;99.90;;;;;;5053274;28;20448;-56
2021/11/04 06:49:17;;;;;;;30.77;23.42;;;7.80;99.90;;;;;;5052640;28;20021;-56
2021/11/04 06:51:47;;;;;;;31.65;23.58;;;7.70;99.90;;;;;;5040824;28;20032;-61
2021/11/04 06:54:15;;;;;;;31.75;23.92;;;7.70;99.90;;;;;;5033848;28;20505;-55
2021/11/04 06:56:46;;;;;;;34.00;23.52;;;7.80;99.90;;;;;;5052028;28;20025;-58
2021/11/04 06:59:19;;;;;;;36.00;25.15;;;7.80;99.90;;;;;;5053464;28;20037;-56
2021/11/04 07:01:54;;;;;;;42.15;28.48;;;7.80;99.90;;;;;;5053219;28;20037;-57
2021/11/04 07:04:34;;;;;;;;;;;7.80;99.90;;;;;;5054452;28;20021;-56
2021/11/04 07:07:04;;;;;;;44.70;30.52;;;7.70;99.90;;;;;;5053374;28;20003;-56
2021/11/04 07:09:32;;;;;;;45.35;30.40;;;7.80;99.90;;;;;;5053008;28;20048;-59
2021/11/04 07:11:59;;;;;;;49.55;31.35;;;7.80;99.90;;;;;;5065806;28;20025;-58
2021/11/04 07:14:30;;;;;;;43.88;29.73;;;7.70;99.90;;;;;;5072774;28;20032;-57
2021/11/04 07:17:00;;;;;;;43.70;29.70;;;7.70;99.90;;;;;;5052750;28;20033;-59
2021/11/04 07:19:27;;;;;;;39.78;28.38;;;7.90;99.90;;;;;;5053492;28;20033;-53
2021/11/04 07:22:07;;;;;;;41.75;29.05;;;7.90;99.90;;;;;;5052687;28;20088;-58
2021/11/04 07:24:43;;;;;;;40.58;28.50;;;7.80;99.90;;;;;;5053475;28;20489;-57
2021/11/04 07:27:35;;;;;;;42.03;29.92;;;7.80;99.90;;;;;;5052353;28;20033;-60
2021/11/04 07:30:06;;;;;;;42.30;30.25;;;7.80;99.90;;;;;;5051234;28;20050;-58
2021/11/04 07:32:32;;;;;;;38.35;29.17;;;7.80;99.90;;;;;;5055329;28;20043;-58
2021/11/04 07:34:58;;;;;;;40.42;28.50;;;7.70;99.90;;;;;;5053651;28;20131;-61
2021/11/04 07:37:32;;;;;;;38.17;28.80;;;7.70;99.90;;;;;;5055093;28;20029;-61
2021/11/04 07:39:58;;;;;;;35.53;26.90;;;7.70;99.90;;;;;;5058244;28;20083;-60
2021/11/04 07:42:24;;;;;;;36.13;26.58;;;7.70;99.90;;;;;;5056299;28;20036;-57
2021/11/04 07:44:50;;;;;;;32.38;26.10;;;7.80;99.90;;;;;;5056173;28;20029;-58
2021/11/04 07:47:18;;;;;;;30.58;24.30;;;7.70;99.90;;;;;;5055923;28;20098;-59
2021/11/04 07:49:44;;;;;;;33.60;24.42;;;7.70;99.90;;;;;;5054972;28;20033;-59
2021/11/04 07:52:09;;;;;;;28.38;22.33;;;7.70;99.90;;;;;;5056344;28;20510;-59
2021/11/04 07:54:35;;;;;;;28.42;21.85;;;7.70;99.90;;;;;;5055426;28;20051;-59
2021/11/04 07:57:02;;;;;;;30.77;22.90;;;7.50;99.90;;;;;;5055787;28;20715;-60
2021/11/04 07:59:31;;;;;;;31.58;23.77;;;7.50;99.90;;;;;;5055512;28;20036;-59
2021/11/04 08:02:00;;;;;;;29.60;22.20;;;7.40;99.90;;;;;;5055368;28;20496;-59
2021/11/04 08:04:26;;;;;;;33.92;23.70;;;7.50;99.90;;;;;;5055526;28;20664;-60
2021/11/04 08:06:52;;;;;;;32.28;21.50;;;7.50;99.90;;;;;;5055315;28;20079;-60
2021/11/04 08:09:19;;;;;;;29.65;21.55;;;7.60;99.90;;;;;;5037697;28;20034;-59
2021/11/04 08:11:45;;;;;;;30.15;21.27;;;7.50;99.90;;;;;;5035193;28;20477;-59
2021/11/04 08:14:10;;;;;;;26.38;20.17;;;7.40;99.90;;;;;;5035399;28;20075;-59
2021/11/04 08:16:36;;;;;;;26.20;20.20;;;7.40;99.90;;;;;;5035345;28;20033;-58
2021/11/04 08:19:01;;;;;;;25.13;18.33;;;7.50;99.90;;;;;;5045021;28;20124;-59
2021/11/04 08:21:27;;;;;;;27.02;19.52;;;7.50;99.90;;;;;;5045290;28;20040;-57
2021/11/04 08:23:53;;;;;;;25.33;19.42;;;7.50;99.90;;;;;;5054871;28;20040;-60
2021/11/04 08:26:19;;;;;;;29.17;20.38;;;7.50;99.90;;;;;;5054555;28;20040;-60
2021/11/04 08:28:44;;;;;;;26.60;18.65;;;7.50;99.90;;;;;;5035188;28;20033;-60
2021/11/04 08:31:10;;;;;;;24.52;18.90;;;7.50;99.90;;;;;;5034730;28;20135;-57
2021/11/04 08:33:35;;;;;;;22.13;16.85;;;7.60;99.90;;;;;;5033441;28;20528;-59
2021/11/04 08:36:02;;;;;;;24.88;18.67;;;7.60;99.90;;;;;;5035679;28;20044;-58
2021/11/04 08:38:27;;;;;;;24.70;18.50;;;7.50;99.90;;;;;;5034706;28;20042;-60
2021/11/04 08:40:53;;;;;;;25.67;17.48;;;7.60;99.90;;;;;;5034874;28;20034;-60
2021/11/04 08:43:18;;;;;;;22.55;17.40;;;7.60;99.90;;;;;;5035059;28;20064;-57
2021/11/04 08:45:44;;;;;;;21.83;16.88;;;7.60;99.90;;;;;;5035494;28;20302;-60
2021/11/04 08:48:10;;;;;;;19.80;15.90;;;7.60;99.90;;;;;;5034386;28;20037;-57
2021/11/04 08:50:36;;;;;;;21.55;15.82;;;7.60;99.90;;;;;;5034730;28;20040;-58
2021/11/04 08:53:02;;;;;;;23.08;17.05;;;7.50;99.90;;;;;;5039148;28;20392;-59
2021/11/04 08:55:27;;;;;;;23.02;16.33;;;7.40;99.90;;;;;;5062808;28;20097;-58
2021/11/04 08:57:54;;;;;;;20.08;15.40;;;7.50;99.90;;;;;;5051897;28;20043;-58
2021/11/04 09:00:20;;;;;;;22.83;16.15;;;7.50;99.90;;;;;;5051807;28;20067;-59
2021/11/04 09:02:47;;;;;;;21.50;16.05;;;7.60;99.90;;;;;;5053570;28;20376;-61
2021/11/04 09:05:13;;;;;;;20.00;14.10;;;7.50;99.90;;;;;;5053908;28;20039;-60
2021/11/04 09:07:43;;;;;;;20.35;14.82;;;7.40;99.90;;;;;;5054203;28;20116;-59
2021/11/04 09:10:12;;;;;;;18.17;14.43;;;7.40;99.90;;;;;;5054193;28;20057;-56
2021/11/04 09:12:40;;;;;;;20.55;15.85;;;7.50;99.90;;;;;;5050073;28;20542;-60
2021/11/04 09:15:10;;;;;;;21.65;15.65;;;7.50;99.90;;;;;;5043460;28;20511;-59
2021/11/04 09:17:36;;;;;;;27.13;16.67;;;7.40;99.90;;;;;;5053854;28;20071;-59
2021/11/04 09:20:02;;;;;;;21.45;15.45;;;7.40;99.90;;;;;;5052396;28;20029;-58
2021/11/04 09:22:28;;;;;;;23.42;16.10;;;7.40;99.90;;;;;;5054244;28;20128;-56
2021/11/04 09:24:55;;;;;;;25.95;17.42;;;7.50;99.90;;;;;;5052794;28;20072;-59
2021/11/04 09:27:21;;;;;;;24.13;17.00;;;7.40;99.90;;;;;;5053837;28;20067;-61
2021/11/04 09:29:48;;;;;;;27.50;18.80;;;7.50;99.90;;;;;;5053885;28;20480;-58
2021/11/04 09:32:14;;;;;;;25.23;17.45;;;7.60;99.90;;;;;;5053174;28;20515;-58
2021/11/04 09:34:39;;;;;;;21.30;16.48;;;7.50;99.90;;;;;;5053724;28;20041;-61
2021/11/04 09:37:06;;;;;;;27.38;18.05;;;7.50;99.90;;;;;;5049539;28;20447;-57
2021/11/04 09:39:33;;;;;;;26.05;16.92;;;7.50;99.90;;;;;;5033820;28;20037;-60
2021/11/04 09:41:59;;;;;;;20.98;14.77;;;7.50;99.90;;;;;;5044374;28;20050;-60
2021/11/04 09:44:25;;;;;;;23.50;16.33;;;7.50;99.90;;;;;;5052336;28;20029;-62
2021/11/04 09:46:50;;;;;;;24.40;17.02;;;7.50;99.90;;;;;;5053475;28;20036;-58
2021/11/04 09:49:16;;;;;;;21.17;15.38;;;7.50;99.90;;;;;;5053028;28;20094;-61
2021/11/04 09:51:42;;;;;;;20.45;14.90;;;7.50;99.90;;;;;;5053061;28;20029;-56
2021/11/04 09:54:08;;;;;;;20.10;15.13;;;7.40;99.90;;;;;;5053104;28;20021;-60
2021/11/04 09:56:35;;;;;;;17.52;14.30;;;7.30;99.90;;;;;;5069764;28;20047;-62
2021/11/04 09:59:01;;;;;;;20.13;14.63;;;7.40;99.90;;;;;;5072322;28;20395;-61
2021/11/04 10:01:28;;;;;;;18.77;14.93;;;7.30;99.90;;;;;;5055939;28;20045;-61
2021/11/04 10:03:56;;;;;;;16.55;13.30;;;7.30;99.90;;;;;;5053499;28;20028;-59
2021/11/04 10:06:33;;;;;;;19.17;14.00;;;7.30;99.90;;;;;;5053613;28;20124;-60
2021/11/04 10:09:03;;;;;;;17.30;14.20;;;7.30;99.90;;;;;;5052791;28;20515;-60
2021/11/04 10:11:35;;;;;;;17.33;13.27;;;7.20;99.90;;;;;;5051016;28;20428;-59
2021/11/04 10:14:07;;;;;;;18.70;13.13;;;7.40;99.90;;;;;;5051213;28;20123;-61
2021/11/04 10:16:33;;;;;;;15.10;12.05;;;7.40;99.90;;;;;;5033142;28;20072;-59
2021/11/04 10:19:08;;;;;;;14.82;11.38;;;7.50;99.90;;;;;;5031553;28;20049;-61
2021/11/04 10:21:36;;;;;;;12.10;10.03;;;7.50;99.90;;;;;;5044316;28;20103;-58
2021/11/04 10:24:04;;;;;;;13.98;10.13;;;7.60;99.90;;;;;;5034925;28;20036;-61
2021/11/04 10:26:35;;;;;;;11.60;9.38;;;7.40;99.90;;;;;;5051919;28;20035;-59
2021/11/04 10:29:04;;;;;;;12.25;8.77;;;7.40;99.90;;;;;;5051876;28;20037;-59
2021/11/04 10:31:43;;;;;;;11.55;8.00;;;7.50;99.90;;;;;;5034045;28;20044;-60
2021/11/04 10:34:13;;;;;;;11.02;8.55;;;7.50;99.90;;;;;;5052218;28;20045;-59
2021/11/04 10:36:44;;;;;;;10.60;7.93;;;7.40;99.90;;;;;;5047513;28;20034;-60
2021/11/04 10:39:11;;;;;;;11.25;7.22;;;7.40;99.90;;;;;;5043500;28;20033;-59
2021/11/04 10:41:39;;;;;;;8.88;6.68;;;7.40;99.90;;;;;;5051718;28;20025;-60
2021/11/04 10:44:16;;;;;;;9.63;6.63;;;7.30;99.90;;;;;;5052932;28;20033;-58
2021/11/04 10:46:41;;;;;;;8.65;6.25;;;7.40;99.90;;;;;;5052358;28;20116;-60
2021/11/04 10:49:07;;;;;;;8.95;6.53;;;7.40;99.90;;;;;;5051058;28;20060;-58
2021/11/04 10:51:33;;;;;;;9.52;6.88;;;7.50;99.90;;;;;;5052667;28;20053;-61
2021/11/04 10:54:16;;;;;;;8.20;6.30;;;7.60;99.90;;;;;;5052486;28;20112;-61
2021/11/04 10:56:44;;;;;;;8.38;6.18;;;7.70;99.90;;;;;;5062101;28;20032;-62
2021/11/04 10:59:13;;;;;;;8.13;6.35;;;7.70;99.90;;;;;;5049781;28;20029;-60
2021/11/04 11:01:41;;;;;;;8.60;6.53;;;7.60;99.90;;;;;;5051906;28;20079;-60
2021/11/04 11:04:13;;;;;;;7.32;6.00;;;7.60;99.90;;;;;;5048310;28;20060;-57
2021/11/04 11:06:44;;;;;;;6.78;6.07;;;7.60;99.90;;;;;;5051098;28;20111;-57
2021/11/04 11:09:13;;;;;;;7.78;5.85;;;7.60;99.90;;;;;;5049693;28;20048;-60
2021/11/04 11:11:41;;;;;;;6.10;5.25;;;7.70;99.90;;;;;;5051799;28;20033;-64
2021/11/04 11:14:07;;;;;;;6.45;5.40;;;7.60;99.90;;;;;;5050125;28;20029;-62
2021/11/04 11:16:36;;;;;;;7.43;5.78;;;7.60;99.90;;;;;;5054357;28;20064;-62
2021/11/04 11:19:02;;;;;;;6.57;4.80;;;7.70;99.90;;;;;;5043286;28;20057;-62
2021/11/04 11:21:39;;;;;;;7.05;5.10;;;7.80;99.90;;;;;;5050316;28;20378;-61
2021/11/04 11:24:05;;;;;;;8.43;5.30;;;7.80;99.90;;;;;;5048464;28;20048;-62
2021/11/04 11:26:32;;;;;;;7.90;4.97;;;7.70;99.90;;;;;;5042921;28;20029;-62
2021/11/04 11:29:00;;;;;;;6.15;5.20;;;7.80;99.90;;;;;;5043811;28;20099;-61
2021/11/04 11:31:27;;;;;;;5.75;4.85;;;7.60;99.90;;;;;;5043404;28;20028;-60
2021/11/04 11:33:53;;;;;;;5.85;5.07;;;7.60;99.90;;;;;;5045236;28;20037;-63
2021/11/04 11:36:20;;;;;;;5.30;3.92;;;7.70;99.90;;;;;;5045107;28;20562;-60
2021/11/04 11:38:58;;;;;;;6.03;4.13;;;7.50;99.90;;;;;;5054681;28;20033;-59
2021/11/04 11:41:52;;;;;;;4.88;3.90;;;7.70;99.90;;;;;;5052637;28;20055;-62
2021/11/04 11:44:40;;;;;;;4.22;3.35;;;7.60;99.90;;;;;;5046355;28;20099;-61
2021/11/04 11:47:11;;;;;;;5.03;3.25;;;7.60;99.90;;;;;;5008348;28;20056;-61
2021/11/04 11:49:39;;;;;;;4.18;2.92;;;7.60;99.90;;;;;;5050228;28;20025;-62
2021/11/04 11:52:07;;;;;;;3.92;3.00;;;7.60;99.90;;;;;;5041448;28;20374;-62
2021/11/04 11:54:58;;;;;;;5.50;3.28;;;7.50;99.90;;;;;;5055527;28;20102;-61
2021/11/04 11:57:24;;;;;;;5.03;3.10;;;7.60;99.90;;;;;;5074300;28;20036;-61
2021/11/04 11:59:53;;;;;;;4.53;3.10;;;7.60;99.90;;;;;;5074732;28;20031;-62
2021/11/04 12:02:34;;;;;;;5.25;3.55;;;7.50;99.90;;;;;;5075421;28;20116;-61
2021/11/04 12:05:21;;;;;;;5.97;3.72;;;7.60;99.90;;;;;;5070711;28;20100;-62
2021/11/04 12:07:54;;;;;;;4.95;3.20;;;7.60;99.90;;;;;;5054026;28;20416;-63
2021/11/04 12:10:32;;;;;;;5.70;3.28;;;7.60;99.90;;;;;;5053833;28;20040;-62
2021/11/04 12:12:59;;;;;;;5.32;3.00;;;7.60;99.90;;;;;;5049466;28;20021;-65
2021/11/04 12:15:25;;;;;;;4.70;2.78;;;7.70;99.90;;;;;;5053746;28;20045;-62
2021/11/04 12:18:19;;;;;;;3.45;2.47;;;7.70;99.90;;;;;;5053423;28;20032;-60
2021/11/04 12:20:55;;;;;;;6.70;2.90;;;7.70;99.90;;;;;;5052074;28;20033;-60
2021/11/04 12:23:29;;;;;;;3.92;2.58;;;7.80;99.90;;;;;;5047425;28;20759;-64
2021/11/04 12:25:54;;;;;;;3.47;2.80;;;7.70;99.90;;;;;;5051621;28;20082;-62
2021/11/04 12:28:20;;;;;;;3.42;2.60;;;7.80;99.90;;;;;;5053281;28;20095;-60
2021/11/04 12:30:45;;;;;;;5.50;2.80;;;7.80;99.90;;;;;;5053218;28;20095;-61
2021/11/04 12:33:11;;;;;;;4.20;2.63;;;7.80;99.90;;;;;;5051433;28;20027;-60
2021/11/04 12:35:59;;;;;;;4.68;3.30;;;7.70;99.90;;;;;;5051683;28;20108;-63
2021/11/04 12:38:45;;;;;;;3.78;2.40;;;7.80;99.90;;;;;;5053985;28;20029;-62
2021/11/04 12:41:14;;;;;;;4.22;2.80;;;7.80;99.90;;;;;;5053564;28;20017;-61
2021/11/04 12:43:40;;;;;;;4.43;3.17;;;7.70;99.90;;;;;;5055277;28;20068;-59
2021/11/04 12:46:27;;;;;;;4.28;3.22;;;7.60;99.90;;;;;;5037755;28;20107;-59